sensor_id;sensor_type;location;lat;lon;timestamp;pressure;altitude;pressure_sealevel;temperature;humidity
69971;BME280;57301;50.328;8.542;2023-06-04T00:02:03;98787.75;;;8.18;79.20
69971;BME280;57301;50.328;8.542;2023-06-04T00:04:29;98781.44;;;8.19;79.28
69971;BME280;57301;50.328;8.542;2023-06-04T00:06:56;98784.88;;;8.31;78.97
69971;BME280;57301;50.328;8.542;2023-06-04T00:09:23;98775.22;;;8.30;78.82
69971;BME280;57301;50.328;8.542;2023-06-04T00:11:50;98773.75;;;8.37;79.07
69971;BME280;57301;50.328;8.542;2023-06-04T00:14:16;98774.59;;;8.17;79.31
69971;BME280;57301;50.328;8.542;2023-06-04T00:16:43;98777.31;;;7.85;80.80
69971;BME280;57301;50.328;8.542;2023-06-04T00:19:10;98778.84;;;7.98;79.67
69971;BME280;57301;50.328;8.542;2023-06-04T00:21:36;98783.16;;;7.78;80.74
69971;BME280;57301;50.328;8.542;2023-06-04T00:24:03;98764.63;;;7.88;81.06
69971;BME280;57301;50.328;8.542;2023-06-04T00:26:30;98761.16;;;7.88;79.92
69971;BME280;57301;50.328;8.542;2023-06-04T00:28:56;98773.53;;;7.98;80.61
69971;BME280;57301;50.328;8.542;2023-06-04T00:31:23;98772.47;;;7.90;80.87
69971;BME280;57301;50.328;8.542;2023-06-04T00:33:50;98769.25;;;7.86;80.98
69971;BME280;57301;50.328;8.542;2023-06-04T00:36:17;98766.59;;;7.86;80.94
69971;BME280;57301;50.328;8.542;2023-06-04T00:38:43;98776.91;;;7.79;81.14
69971;BME280;57301;50.328;8.542;2023-06-04T00:41:10;98779.88;;;7.54;82.08
69971;BME280;57301;50.328;8.542;2023-06-04T00:43:36;98787.75;;;7.56;82.49
69971;BME280;57301;50.328;8.542;2023-06-04T00:46:03;98772.75;;;7.34;82.52
69971;BME280;57301;50.328;8.542;2023-06-04T00:48:29;98774.84;;;7.51;82.44
69971;BME280;57301;50.328;8.542;2023-06-04T00:50:56;98774.84;;;7.51;82.60
69971;BME280;57301;50.328;8.542;2023-06-04T00:53:25;98775.34;;;7.45;82.34
69971;BME280;57301;50.328;8.542;2023-06-04T00:55:52;98774.06;;;7.60;82.47
69971;BME280;57301;50.328;8.542;2023-06-04T00:58:18;98775.03;;;7.59;81.77
69971;BME280;57301;50.328;8.542;2023-06-04T01:00:46;98773.88;;;7.52;82.25
69971;BME280;57301;50.328;8.542;2023-06-04T01:03:17;98773.81;;;7.63;82.38
69971;BME280;57301;50.328;8.542;2023-06-04T01:05:51;98776.09;;;7.68;81.82
69971;BME280;57301;50.328;8.542;2023-06-04T01:08:23;98776.53;;;7.73;81.58
69971;BME280;57301;50.328;8.542;2023-06-04T01:10:54;98781.59;;;7.55;81.67
69971;BME280;57301;50.328;8.542;2023-06-04T01:13:22;98780.34;;;7.59;82.41
69971;BME280;57301;50.328;8.542;2023-06-04T01:15:48;98780.06;;;7.41;81.68
69971;BME280;57301;50.328;8.542;2023-06-04T01:18:25;98780.75;;;7.22;82.40
69971;BME280;57301;50.328;8.542;2023-06-04T01:20:59;98780.41;;;7.48;82.39
69971;BME280;57301;50.328;8.542;2023-06-04T01:23:36;98782.41;;;7.23;82.34
69971;BME280;57301;50.328;8.542;2023-06-04T01:26:05;98783.34;;;7.02;83.63
69971;BME280;57301;50.328;8.542;2023-06-04T01:28:33;98776.16;;;7.24;83.41
69971;BME280;57301;50.328;8.542;2023-06-04T01:31:01;98774.59;;;7.22;82.89
69971;BME280;57301;50.328;8.542;2023-06-04T01:33:29;98781.50;;;7.13;83.41
69971;BME280;57301;50.328;8.542;2023-06-04T01:35:56;98781.59;;;7.12;83.31
69971;BME280;57301;50.328;8.542;2023-06-04T01:38:22;98775.72;;;7.08;83.38
69971;BME280;57301;50.328;8.542;2023-06-04T01:40:49;98769.31;;;7.11;82.50
69971;BME280;57301;50.328;8.542;2023-06-04T01:43:16;98780.44;;;6.93;84.35
69971;BME280;57301;50.328;8.542;2023-06-04T01:45:43;98779.66;;;6.70;84.55
69971;BME280;57301;50.328;8.542;2023-06-04T01:48:09;98783.50;;;6.66;84.55
69971;BME280;57301;50.328;8.542;2023-06-04T01:50:36;98773.97;;;6.75;84.61
69971;BME280;57301;50.328;8.542;2023-06-04T01:53:03;98776.88;;;6.61;84.56
69971;BME280;57301;50.328;8.542;2023-06-04T01:55:29;98781.47;;;6.70;84.17
69971;BME280;57301;50.328;8.542;2023-06-04T01:58:00;98782.78;;;6.76;84.02
69971;BME280;57301;50.328;8.542;2023-06-04T02:00:26;98784.75;;;6.51;84.08
69971;BME280;57301;50.328;8.542;2023-06-04T02:02:53;98780.03;;;6.43;84.75
69971;BME280;57301;50.328;8.542;2023-06-04T02:05:22;98781.22;;;6.73;84.56
69971;BME280;57301;50.328;8.542;2023-06-04T02:07:49;98783.63;;;6.54;84.29
69971;BME280;57301;50.328;8.542;2023-06-04T02:10:17;98781.84;;;6.65;84.23
69971;BME280;57301;50.328;8.542;2023-06-04T02:12:55;98782.53;;;6.79;83.65
69971;BME280;57301;50.328;8.542;2023-06-04T02:15:23;98788.31;;;6.84;83.66
69971;BME280;57301;50.328;8.542;2023-06-04T02:17:49;98787.00;;;6.56;84.31
69971;BME280;57301;50.328;8.542;2023-06-04T02:20:17;98786.66;;;6.49;83.87
69971;BME280;57301;50.328;8.542;2023-06-04T02:22:44;98787.25;;;6.53;84.28
69971;BME280;57301;50.328;8.542;2023-06-04T02:25:10;98794.47;;;6.28;84.42
69971;BME280;57301;50.328;8.542;2023-06-04T02:27:37;98792.06;;;6.14;84.97
69971;BME280;57301;50.328;8.542;2023-06-04T02:30:04;98795.91;;;6.10;86.51
69971;BME280;57301;50.328;8.542;2023-06-04T02:32:32;98800.34;;;6.09;85.70
69971;BME280;57301;50.328;8.542;2023-06-04T02:34:59;98795.66;;;6.24;85.63
69971;BME280;57301;50.328;8.542;2023-06-04T02:37:36;98794.81;;;6.24;85.63
69971;BME280;57301;50.328;8.542;2023-06-04T02:40:02;98793.38;;;6.08;86.32
69971;BME280;57301;50.328;8.542;2023-06-04T02:42:30;98792.75;;;6.05;86.18
69971;BME280;57301;50.328;8.542;2023-06-04T02:44:56;98800.34;;;6.09;86.64
69971;BME280;57301;50.328;8.542;2023-06-04T02:47:23;98790.00;;;6.06;86.32
69971;BME280;57301;50.328;8.542;2023-06-04T02:49:49;98795.94;;;5.86;88.17
69971;BME280;57301;50.328;8.542;2023-06-04T02:52:16;98792.91;;;6.14;87.46
69971;BME280;57301;50.328;8.542;2023-06-04T02:54:42;98791.66;;;6.07;86.05
69971;BME280;57301;50.328;8.542;2023-06-04T02:57:09;98787.22;;;5.97;86.48
69971;BME280;57301;50.328;8.542;2023-06-04T02:59:35;98785.97;;;5.89;86.94
69971;BME280;57301;50.328;8.542;2023-06-04T03:02:04;98791.69;;;5.96;86.37
69971;BME280;57301;50.328;8.542;2023-06-04T03:04:30;98790.50;;;5.76;86.83
69971;BME280;57301;50.328;8.542;2023-06-04T03:07:01;98788.47;;;5.80;86.28
69971;BME280;57301;50.328;8.542;2023-06-04T03:09:30;98797.69;;;5.98;86.44
69971;BME280;57301;50.328;8.542;2023-06-04T03:11:59;98795.91;;;5.75;86.95
69971;BME280;57301;50.328;8.542;2023-06-04T03:14:27;98797.53;;;5.53;86.78
69971;BME280;57301;50.328;8.542;2023-06-04T03:17:02;98800.31;;;5.63;87.28
69971;BME280;57301;50.328;8.542;2023-06-04T03:19:35;98797.53;;;5.53;86.90
69971;BME280;57301;50.328;8.542;2023-06-04T03:22:05;98798.84;;;5.48;89.46
69971;BME280;57301;50.328;8.542;2023-06-04T03:24:33;98801.91;;;5.65;88.62
69971;BME280;57301;50.328;8.542;2023-06-04T03:27:01;98802.53;;;5.80;87.95
69971;BME280;57301;50.328;8.542;2023-06-04T03:29:28;98805.47;;;5.64;87.90
69971;BME280;57301;50.328;8.542;2023-06-04T03:31:54;98810.72;;;5.77;87.57
69971;BME280;57301;50.328;8.542;2023-06-04T03:34:21;98809.59;;;5.69;86.88
69971;BME280;57301;50.328;8.542;2023-06-04T03:36:54;98799.22;;;5.89;86.95
69971;BME280;57301;50.328;8.542;2023-06-04T03:39:21;98802.88;;;5.76;86.87
69971;BME280;57301;50.328;8.542;2023-06-04T03:41:48;98788.22;;;5.83;85.77
69971;BME280;57301;50.328;8.542;2023-06-04T03:44:16;98793.41;;;5.84;86.63
69971;BME280;57301;50.328;8.542;2023-06-04T03:46:43;98799.78;;;5.82;86.38
69971;BME280;57301;50.328;8.542;2023-06-04T03:49:10;98803.94;;;5.62;86.79
69971;BME280;57301;50.328;8.542;2023-06-04T03:51:37;98808.75;;;5.68;86.28
69971;BME280;57301;50.328;8.542;2023-06-04T03:54:04;98807.28;;;5.64;86.71
69971;BME280;57301;50.328;8.542;2023-06-04T03:56:32;98802.31;;;5.83;86.63
69971;BME280;57301;50.328;8.542;2023-06-04T03:58:58;98809.63;;;6.15;84.75
69971;BME280;57301;50.328;8.542;2023-06-04T04:01:25;98807.34;;;6.10;84.86
69971;BME280;57301;50.328;8.542;2023-06-04T04:03:52;98806.88;;;5.81;85.48
69971;BME280;57301;50.328;8.542;2023-06-04T04:06:20;98806.59;;;5.97;85.84
69971;BME280;57301;50.328;8.542;2023-06-04T04:08:47;98815.13;;;5.65;87.84
69971;BME280;57301;50.328;8.542;2023-06-04T04:11:15;98807.31;;;5.99;87.02
69971;BME280;57301;50.328;8.542;2023-06-04T04:13:42;98806.63;;;6.42;86.04
69971;BME280;57301;50.328;8.542;2023-06-04T04:16:10;98809.47;;;6.05;86.60
69971;BME280;57301;50.328;8.542;2023-06-04T04:18:46;98806.16;;;6.37;85.79
69971;BME280;57301;50.328;8.542;2023-06-04T04:21:18;98807.94;;;6.25;85.60
69971;BME280;57301;50.328;8.542;2023-06-04T04:23:45;98804.72;;;6.22;85.49
69971;BME280;57301;50.328;8.542;2023-06-04T04:26:12;98806.13;;;6.26;86.04
69971;BME280;57301;50.328;8.542;2023-06-04T04:28:43;98804.72;;;6.33;85.53
69971;BME280;57301;50.328;8.542;2023-06-04T04:31:10;98808.69;;;6.83;85.34
69971;BME280;57301;50.328;8.542;2023-06-04T04:33:36;98804.22;;;6.72;84.77
69971;BME280;57301;50.328;8.542;2023-06-04T04:36:06;98812.75;;;6.87;84.55
69971;BME280;57301;50.328;8.542;2023-06-04T04:38:39;98815.31;;;6.66;84.83
69971;BME280;57301;50.328;8.542;2023-06-04T04:41:07;98814.81;;;6.72;85.07
69971;BME280;57301;50.328;8.542;2023-06-04T04:43:36;98815.31;;;6.89;84.77
69971;BME280;57301;50.328;8.542;2023-06-04T04:46:04;98811.06;;;6.97;84.45
69971;BME280;57301;50.328;8.542;2023-06-04T04:48:31;98801.56;;;6.95;85.22
69971;BME280;57301;50.328;8.542;2023-06-04T04:50:58;98813.84;;;6.85;85.77
69971;BME280;57301;50.328;8.542;2023-06-04T04:53:25;98813.69;;;7.09;85.09
69971;BME280;57301;50.328;8.542;2023-06-04T04:55:52;98815.34;;;7.21;85.06
69971;BME280;57301;50.328;8.542;2023-06-04T04:58:18;98810.84;;;7.33;84.36
69971;BME280;57301;50.328;8.542;2023-06-04T05:00:45;98816.19;;;7.53;83.28
69971;BME280;57301;50.328;8.542;2023-06-04T05:03:13;98816.53;;;7.60;82.80
69971;BME280;57301;50.328;8.542;2023-06-04T05:05:40;98814.44;;;7.75;82.99
69971;BME280;57301;50.328;8.542;2023-06-04T05:08:06;98818.56;;;7.89;82.82
69971;BME280;57301;50.328;8.542;2023-06-04T05:10:33;98808.53;;;8.13;82.18
69971;BME280;57301;50.328;8.542;2023-06-04T05:13:02;98814.31;;;8.18;83.14
69971;BME280;57301;50.328;8.542;2023-06-04T05:15:28;98816.19;;;8.48;82.94
69971;BME280;57301;50.328;8.542;2023-06-04T05:17:55;98812.63;;;8.69;82.58
69971;BME280;57301;50.328;8.542;2023-06-04T05:20:22;98811.47;;;9.02;80.99
69971;BME280;57301;50.328;8.542;2023-06-04T05:22:49;98821.47;;;9.29;78.56
69971;BME280;57301;50.328;8.542;2023-06-04T05:25:16;98823.91;;;9.61;76.22
69971;BME280;57301;50.328;8.542;2023-06-04T05:27:45;98823.84;;;10.29;75.48
69971;BME280;57301;50.328;8.542;2023-06-04T05:30:15;98826.56;;;10.66;73.46
69971;BME280;57301;50.328;8.542;2023-06-04T05:32:42;98823.34;;;11.45;72.22
69971;BME280;57301;50.328;8.542;2023-06-04T05:35:09;98819.25;;;12.04;69.47
69971;BME280;57301;50.328;8.542;2023-06-04T05:37:37;98831.00;;;12.11;71.17
69971;BME280;57301;50.328;8.542;2023-06-04T05:40:05;98830.16;;;12.36;69.98
69971;BME280;57301;50.328;8.542;2023-06-04T05:42:32;98827.59;;;12.53;69.35
69971;BME280;57301;50.328;8.542;2023-06-04T05:44:59;98828.34;;;13.05;67.90
69971;BME280;57301;50.328;8.542;2023-06-04T05:47:27;98828.19;;;13.49;66.40
69971;BME280;57301;50.328;8.542;2023-06-04T05:49:55;98825.41;;;14.16;64.70
69971;BME280;57301;50.328;8.542;2023-06-04T05:52:22;98827.59;;;13.88;64.81
69971;BME280;57301;50.328;8.542;2023-06-04T05:54:49;98837.00;;;14.24;61.23
69971;BME280;57301;50.328;8.542;2023-06-04T05:57:16;98824.56;;;14.48;60.03
69971;BME280;57301;50.328;8.542;2023-06-04T05:59:42;98836.44;;;14.70;59.98
69971;BME280;57301;50.328;8.542;2023-06-04T06:02:09;98839.03;;;14.94;60.33
69971;BME280;57301;50.328;8.542;2023-06-04T06:04:35;98826.53;;;15.49;59.28
69971;BME280;57301;50.328;8.542;2023-06-04T06:07:03;98831.59;;;16.58;53.29
69971;BME280;57301;50.328;8.542;2023-06-04T06:09:29;98826.59;;;15.72;56.66
69971;BME280;57301;50.328;8.542;2023-06-04T06:11:56;98825.38;;;17.32;52.20
69971;BME280;57301;50.328;8.542;2023-06-04T06:14:22;98829.88;;;16.43;55.19
69971;BME280;57301;50.328;8.542;2023-06-04T06:16:52;98830.22;;;17.22;50.80
69971;BME280;57301;50.328;8.542;2023-06-04T06:19:19;98838.97;;;17.96;48.46
69971;BME280;57301;50.328;8.542;2023-06-04T06:21:46;98834.69;;;17.14;46.59
69971;BME280;57301;50.328;8.542;2023-06-04T06:24:12;98829.75;;;16.59;47.39
69971;BME280;57301;50.328;8.542;2023-06-04T06:26:39;98830.31;;;17.28;46.87
69971;BME280;57301;50.328;8.542;2023-06-04T06:29:06;98826.91;;;17.56;45.87
69971;BME280;57301;50.328;8.542;2023-06-04T06:31:32;98833.53;;;18.11;44.43
69971;BME280;57301;50.328;8.542;2023-06-04T06:33:59;98834.78;;;18.15;45.23
69971;BME280;57301;50.328;8.542;2023-06-04T06:36:26;98840.81;;;19.29;42.87
69971;BME280;57301;50.328;8.542;2023-06-04T06:38:52;98837.88;;;19.24;41.10
69971;BME280;57301;50.328;8.542;2023-06-04T06:41:19;98835.88;;;20.27;42.30
69971;BME280;57301;50.328;8.542;2023-06-04T06:43:45;98837.28;;;21.09;39.68
69971;BME280;57301;50.328;8.542;2023-06-04T06:46:12;98838.91;;;21.16;40.12
69971;BME280;57301;50.328;8.542;2023-06-04T06:48:38;98839.41;;;20.74;38.30
69971;BME280;57301;50.328;8.542;2023-06-04T06:51:05;98828.72;;;21.12;38.65
69971;BME280;57301;50.328;8.542;2023-06-04T06:53:32;98843.41;;;20.71;38.67
69971;BME280;57301;50.328;8.542;2023-06-04T06:55:58;98841.84;;;19.28;40.58
69971;BME280;57301;50.328;8.542;2023-06-04T06:58:25;98839.97;;;19.28;40.41
69971;BME280;57301;50.328;8.542;2023-06-04T07:00:52;98850.28;;;20.67;39.45
69971;BME280;57301;50.328;8.542;2023-06-04T07:03:20;98845.59;;;21.14;39.48
69971;BME280;57301;50.328;8.542;2023-06-04T07:05:47;98854.19;;;20.18;39.32
69971;BME280;57301;50.328;8.542;2023-06-04T07:08:14;98841.28;;;20.80;38.21
69971;BME280;57301;50.328;8.542;2023-06-04T07:10:41;98850.03;;;20.29;38.45
69971;BME280;57301;50.328;8.542;2023-06-04T07:13:07;98847.38;;;20.75;37.54
69971;BME280;57301;50.328;8.542;2023-06-04T07:15:34;98853.44;;;19.63;40.61
69971;BME280;57301;50.328;8.542;2023-06-04T07:18:01;98848.38;;;20.15;38.74
69971;BME280;57301;50.328;8.542;2023-06-04T07:20:27;98853.34;;;20.11;37.81
69971;BME280;57301;50.328;8.542;2023-06-04T07:22:54;98854.41;;;20.43;38.86
69971;BME280;57301;50.328;8.542;2023-06-04T07:25:20;98858.50;;;21.25;37.00
69971;BME280;57301;50.328;8.542;2023-06-04T07:27:49;98866.22;;;21.86;37.01
69971;BME280;57301;50.328;8.542;2023-06-04T07:30:19;98870.06;;;20.74;37.74
69971;BME280;57301;50.328;8.542;2023-06-04T07:32:48;98861.03;;;21.78;36.98
69971;BME280;57301;50.328;8.542;2023-06-04T07:35:15;98852.34;;;22.33;35.54
69971;BME280;57301;50.328;8.542;2023-06-04T07:37:42;98855.81;;;21.32;37.50
69971;BME280;57301;50.328;8.542;2023-06-04T07:40:11;98856.63;;;21.32;37.44
69971;BME280;57301;50.328;8.542;2023-06-04T07:42:38;98853.06;;;22.46;35.53
69971;BME280;57301;50.328;8.542;2023-06-04T07:45:04;98860.75;;;21.41;36.91
69971;BME280;57301;50.328;8.542;2023-06-04T07:47:31;98860.81;;;22.18;35.94
69971;BME280;57301;50.328;8.542;2023-06-04T07:49:59;98861.63;;;22.75;34.58
69971;BME280;57301;50.328;8.542;2023-06-04T07:52:29;98859.28;;;23.03;33.49
69971;BME280;57301;50.328;8.542;2023-06-04T07:54:55;98864.88;;;22.59;33.27
69971;BME280;57301;50.328;8.542;2023-06-04T07:57:23;98864.16;;;22.95;33.24
69971;BME280;57301;50.328;8.542;2023-06-04T07:59:49;98860.13;;;22.29;34.94
69971;BME280;57301;50.328;8.542;2023-06-04T08:02:16;98865.03;;;23.32;35.12
69971;BME280;57301;50.328;8.542;2023-06-04T08:04:44;98851.63;;;22.44;34.16
69971;BME280;57301;50.328;8.542;2023-06-04T08:07:11;98864.41;;;22.68;34.17
69971;BME280;57301;50.328;8.542;2023-06-04T08:09:38;98858.47;;;22.53;32.60
69971;BME280;57301;50.328;8.542;2023-06-04T08:12:05;98859.34;;;22.72;32.38
69971;BME280;57301;50.328;8.542;2023-06-04T08:14:35;98852.94;;;22.91;34.05
69971;BME280;57301;50.328;8.542;2023-06-04T08:17:01;98856.94;;;22.82;34.39
69971;BME280;57301;50.328;8.542;2023-06-04T08:19:28;98859.72;;;22.75;33.34
69971;BME280;57301;50.328;8.542;2023-06-04T08:21:54;98854.47;;;21.92;33.83
69971;BME280;57301;50.328;8.542;2023-06-04T08:24:22;98853.03;;;23.21;33.08
69971;BME280;57301;50.328;8.542;2023-06-04T08:26:48;98859.91;;;22.56;33.33
69971;BME280;57301;50.328;8.542;2023-06-04T08:29:16;98855.50;;;22.79;33.12
69971;BME280;57301;50.328;8.542;2023-06-04T08:31:43;98847.78;;;22.26;32.43
69971;BME280;57301;50.328;8.542;2023-06-04T08:34:09;98857.91;;;22.94;31.80
69971;BME280;57301;50.328;8.542;2023-06-04T08:36:36;98841.44;;;22.83;31.35
69971;BME280;57301;50.328;8.542;2023-06-04T08:39:02;98860.38;;;23.39;31.30
69971;BME280;57301;50.328;8.542;2023-06-04T08:41:38;98856.50;;;23.28;32.34
69971;BME280;57301;50.328;8.542;2023-06-04T08:44:09;98858.91;;;23.18;31.60
69971;BME280;57301;50.328;8.542;2023-06-04T08:46:39;98856.84;;;23.32;30.59
69971;BME280;57301;50.328;8.542;2023-06-04T08:49:07;98857.75;;;23.44;31.93
69971;BME280;57301;50.328;8.542;2023-06-04T08:51:36;98861.72;;;23.30;31.62
69971;BME280;57301;50.328;8.542;2023-06-04T08:54:08;98848.94;;;23.67;30.17
69971;BME280;57301;50.328;8.542;2023-06-04T08:56:35;98858.91;;;23.73;29.75
69971;BME280;57301;50.328;8.542;2023-06-04T08:59:04;98849.69;;;22.26;31.50
69971;BME280;57301;50.328;8.542;2023-06-04T09:01:33;98859.47;;;23.27;31.25
69971;BME280;57301;50.328;8.542;2023-06-04T09:04:04;98856.94;;;23.44;29.71
69971;BME280;57301;50.328;8.542;2023-06-04T09:06:32;98863.97;;;24.00;29.60
69971;BME280;57301;50.328;8.542;2023-06-04T09:09:01;98860.16;;;23.89;29.54
69971;BME280;57301;50.328;8.542;2023-06-04T09:11:35;98860.22;;;23.34;30.07
69971;BME280;57301;50.328;8.542;2023-06-04T09:14:07;98866.00;;;23.74;29.66
69971;BME280;57301;50.328;8.542;2023-06-04T09:16:44;98864.03;;;23.63;30.02
69971;BME280;57301;50.328;8.542;2023-06-04T09:19:11;98866.56;;;22.85;29.85
69971;BME280;57301;50.328;8.542;2023-06-04T09:21:54;98866.31;;;23.48;31.12
69971;BME280;57301;50.328;8.542;2023-06-04T09:24:22;98869.94;;;23.42;30.17
69971;BME280;57301;50.328;8.542;2023-06-04T09:26:49;98866.47;;;23.16;30.62
69971;BME280;57301;50.328;8.542;2023-06-04T09:29:16;98869.78;;;23.18;32.40
69971;BME280;57301;50.328;8.542;2023-06-04T09:31:58;98868.88;;;23.06;32.83
69971;BME280;57301;50.328;8.542;2023-06-04T09:34:28;98869.25;;;22.91;29.88
69971;BME280;57301;50.328;8.542;2023-06-04T09:36:55;98868.72;;;23.38;30.37
69971;BME280;57301;50.328;8.542;2023-06-04T09:39:22;98868.13;;;23.17;32.08
69971;BME280;57301;50.328;8.542;2023-06-04T09:42:00;98866.16;;;22.81;32.98
69971;BME280;57301;50.328;8.542;2023-06-04T09:44:29;98859.34;;;22.97;32.31
69971;BME280;57301;50.328;8.542;2023-06-04T09:46:57;98868.97;;;23.36;32.33
69971;BME280;57301;50.328;8.542;2023-06-04T09:49:23;98864.25;;;23.06;29.44
69971;BME280;57301;50.328;8.542;2023-06-04T09:51:50;98857.34;;;22.61;31.50
69971;BME280;57301;50.328;8.542;2023-06-04T09:54:17;98856.66;;;22.47;31.41
69971;BME280;57301;50.328;8.542;2023-06-04T09:56:44;98851.06;;;22.85;33.67
69971;BME280;57301;50.328;8.542;2023-06-04T09:59:13;98851.47;;;22.89;30.02
69971;BME280;57301;50.328;8.542;2023-06-04T10:01:40;98856.09;;;23.25;35.00
69971;BME280;57301;50.328;8.542;2023-06-04T10:04:12;98855.19;;;22.94;30.37
69971;BME280;57301;50.328;8.542;2023-06-04T10:06:40;98858.13;;;22.68;31.50
69971;BME280;57301;50.328;8.542;2023-06-04T10:09:08;98860.47;;;22.89;31.80
69971;BME280;57301;50.328;8.542;2023-06-04T10:11:39;98858.22;;;23.41;30.01
69971;BME280;57301;50.328;8.542;2023-06-04T10:16:39;98851.63;;;22.44;29.74
69971;BME280;57301;50.328;8.542;2023-06-04T10:19:07;98858.47;;;22.53;31.83
69971;BME280;57301;50.328;8.542;2023-06-04T10:21:34;98851.34;;;23.02;31.85
69971;BME280;57301;50.328;8.542;2023-06-04T10:24:04;98858.88;;;23.00;31.38
69971;BME280;57301;50.328;8.542;2023-06-04T10:26:33;98857.97;;;22.63;29.29
69971;BME280;57301;50.328;8.542;2023-06-04T10:29:01;98849.66;;;23.01;32.64
69971;BME280;57301;50.328;8.542;2023-06-04T10:31:29;98849.47;;;23.57;30.35
69971;BME280;57301;50.328;8.542;2023-06-04T10:33:56;98848.69;;;23.69;30.86
69971;BME280;57301;50.328;8.542;2023-06-04T10:36:24;98860.88;;;23.48;30.43
69971;BME280;57301;50.328;8.542;2023-06-04T10:38:53;98844.38;;;23.79;29.97
69971;BME280;57301;50.328;8.542;2023-06-04T10:41:24;98843.53;;;24.09;29.02
69971;BME280;57301;50.328;8.542;2023-06-04T10:44:01;98842.63;;;23.85;31.10
69971;BME280;57301;50.328;8.542;2023-06-04T10:46:40;98840.47;;;24.17;29.58
69971;BME280;57301;50.328;8.542;2023-06-04T10:49:09;98853.16;;;23.93;30.86
69971;BME280;57301;50.328;8.542;2023-06-04T10:51:36;98853.47;;;23.18;28.16
69971;BME280;57301;50.328;8.542;2023-06-04T10:54:03;98851.41;;;23.32;28.37
69971;BME280;57301;50.328;8.542;2023-06-04T10:56:32;98842.31;;;23.56;28.63
69971;BME280;57301;50.328;8.542;2023-06-04T10:59:00;98842.69;;;23.78;27.36
69971;BME280;57301;50.328;8.542;2023-06-04T11:01:27;98846.69;;;24.06;29.59
69971;BME280;57301;50.328;8.542;2023-06-04T11:03:58;98852.91;;;24.13;28.96
69971;BME280;57301;50.328;8.542;2023-06-04T11:06:25;98839.59;;;23.56;28.98
69971;BME280;57301;50.328;8.542;2023-06-04T11:09:04;98844.84;;;23.03;27.93
69971;BME280;57301;50.328;8.542;2023-06-04T11:11:32;98841.81;;;22.68;30.09
69971;BME280;57301;50.328;8.542;2023-06-04T11:14:11;98837.38;;;22.73;30.95
69971;BME280;57301;50.328;8.542;2023-06-04T11:16:42;98841.66;;;23.24;28.74
69971;BME280;57301;50.328;8.542;2023-06-04T11:19:09;98831.44;;;23.38;31.14
69971;BME280;57301;50.328;8.542;2023-06-04T11:21:35;98838.56;;;23.57;29.50
69971;BME280;57301;50.328;8.542;2023-06-04T11:24:05;98832.63;;;24.09;27.46
69971;BME280;57301;50.328;8.542;2023-06-04T11:26:35;98833.13;;;24.29;27.24
69971;BME280;57301;50.328;8.542;2023-06-04T11:29:08;98839.97;;;23.78;27.11
69971;BME280;57301;50.328;8.542;2023-06-04T11:34:09;98837.09;;;24.03;28.95
69971;BME280;57301;50.328;8.542;2023-06-04T11:36:36;98828.44;;;24.48;28.33
69971;BME280;57301;50.328;8.542;2023-06-04T11:39:05;98824.53;;;25.03;26.98
69971;BME280;57301;50.328;8.542;2023-06-04T11:41:35;98830.38;;;24.95;28.04
69971;BME280;57301;50.328;8.542;2023-06-04T11:44:04;98834.28;;;24.10;28.64
69971;BME280;57301;50.328;8.542;2023-06-04T11:46:33;98834.78;;;23.77;25.95
69971;BME280;57301;50.328;8.542;2023-06-04T11:49:01;98835.84;;;23.88;25.91
69971;BME280;57301;50.328;8.542;2023-06-04T11:51:29;98821.72;;;24.51;26.58
69971;BME280;57301;50.328;8.542;2023-06-04T11:53:56;98819.91;;;25.03;25.72
69971;BME280;57301;50.328;8.542;2023-06-04T11:56:24;98814.31;;;25.33;26.90
69971;BME280;57301;50.328;8.542;2023-06-04T11:58:54;98810.50;;;25.34;26.75
69971;BME280;57301;50.328;8.542;2023-06-04T12:01:21;98815.59;;;25.42;26.15
69971;BME280;57301;50.328;8.542;2023-06-04T12:03:49;98808.28;;;25.19;26.05
69971;BME280;57301;50.328;8.542;2023-06-04T12:06:19;98809.56;;;25.81;25.66
69971;BME280;57301;50.328;8.542;2023-06-04T12:08:51;98809.81;;;25.67;26.95
69971;BME280;57301;50.328;8.542;2023-06-04T12:11:33;98813.78;;;24.49;25.26
69971;BME280;57301;50.328;8.542;2023-06-04T12:14:05;98811.63;;;24.51;27.40
69971;BME280;57301;50.328;8.542;2023-06-04T12:16:34;98796.34;;;25.49;27.63
69971;BME280;57301;50.328;8.542;2023-06-04T12:19:09;98806.94;;;26.19;24.26
69971;BME280;57301;50.328;8.542;2023-06-04T12:21:36;98813.19;;;24.59;24.38
69971;BME280;57301;50.328;8.542;2023-06-04T12:24:10;98805.06;;;24.29;26.98
69971;BME280;57301;50.328;8.542;2023-06-04T12:26:38;98805.38;;;24.74;24.58
69971;BME280;57301;50.328;8.542;2023-06-04T12:29:09;98797.66;;;25.46;24.63
69971;BME280;57301;50.328;8.542;2023-06-04T12:31:40;98805.75;;;25.41;26.69
69971;BME280;57301;50.328;8.542;2023-06-04T12:34:07;98800.31;;;25.41;24.86
69971;BME280;57301;50.328;8.542;2023-06-04T12:36:34;98796.25;;;25.44;25.88
69971;BME280;57301;50.328;8.542;2023-06-04T12:39:02;98799.88;;;25.90;25.45
69971;BME280;57301;50.328;8.542;2023-06-04T12:41:30;98795.31;;;25.79;23.73
69971;BME280;57301;50.328;8.542;2023-06-04T12:43:57;98791.66;;;25.73;25.08
69971;BME280;57301;50.328;8.542;2023-06-04T12:46:24;98798.44;;;25.18;27.32
69971;BME280;57301;50.328;8.542;2023-06-04T12:48:51;98800.00;;;25.14;25.34
69971;BME280;57301;50.328;8.542;2023-06-04T12:51:18;98793.22;;;25.57;25.10
69971;BME280;57301;50.328;8.542;2023-06-04T12:53:45;98798.34;;;25.54;26.77
69971;BME280;57301;50.328;8.542;2023-06-04T12:56:12;98798.59;;;26.26;25.70
69971;BME280;57301;50.328;8.542;2023-06-04T12:58:39;98792.63;;;26.63;26.46
69971;BME280;57301;50.328;8.542;2023-06-04T13:01:05;98794.88;;;26.15;23.52
69971;BME280;57301;50.328;8.542;2023-06-04T13:03:36;98786.84;;;26.42;24.79
69971;BME280;57301;50.328;8.542;2023-06-04T13:06:04;98788.09;;;27.29;23.80
69971;BME280;57301;50.328;8.542;2023-06-04T13:08:32;98778.47;;;27.97;22.92
69971;BME280;57301;50.328;8.542;2023-06-04T13:10:59;98776.81;;;27.96;23.54
69971;BME280;57301;50.328;8.542;2023-06-04T13:13:27;98786.38;;;27.23;24.10
69971;BME280;57301;50.328;8.542;2023-06-04T13:15:53;98783.28;;;27.14;24.53